createdAt,value
2017-12-22T00:00:58.385Z,15.73
2017-12-22T00:04:08.733Z,19.35
2017-12-22T00:07:18.965Z,19.40
2017-12-22T00:10:28.754Z,17.70
2017-12-22T00:13:38.686Z,16.15
2017-12-22T00:16:48.718Z,18.02
2017-12-22T00:19:59.949Z,19.70
2017-12-22T00:23:10.103Z,19.58
2017-12-22T00:26:19.907Z,16.65
2017-12-22T00:29:30.635Z,14.50
2017-12-22T00:32:41.195Z,14.48
2017-12-22T00:35:51.896Z,16.50
2017-12-22T00:39:02.614Z,15.70
2017-12-22T00:42:12.933Z,15.82
2017-12-22T00:45:22.964Z,14.77
2017-12-22T00:48:32.904Z,15.52
2017-12-22T00:51:42.836Z,14.35
2017-12-22T00:54:52.980Z,13.85
2017-12-22T00:58:03.186Z,15.85
2017-12-22T01:01:13.987Z,14.32
2017-12-22T01:04:24.468Z,15.20
2017-12-22T01:07:34.386Z,16.20
2017-12-22T01:10:45.132Z,14.73
2017-12-22T01:13:56.004Z,16.55
2017-12-22T01:17:11.670Z,15.35
2017-12-22T01:20:22.252Z,13.70
2017-12-22T01:23:32.095Z,18.10
2017-12-22T01:26:41.921Z,17.62
2017-12-22T01:29:51.711Z,16.15
2017-12-22T01:33:02.495Z,14.48
2017-12-22T01:36:12.750Z,19.85
2017-12-22T01:39:23.096Z,14.23
2017-12-22T01:42:32.955Z,17.20
2017-12-22T01:45:42.783Z,15.70
2017-12-22T01:48:52.734Z,14.00
2017-12-22T01:52:03.237Z,17.05
2017-12-22T01:55:13.201Z,15.02
2017-12-22T01:58:23.164Z,16.42
2017-12-22T02:01:33.031Z,16.87
2017-12-22T02:04:43.074Z,12.98
2017-12-22T02:07:53.233Z,13.13
2017-12-22T02:11:03.496Z,17.75
2017-12-22T02:14:13.494Z,13.62
2017-12-22T02:17:23.516Z,12.35
2017-12-22T02:20:33.580Z,16.62
2017-12-22T02:23:43.603Z,14.60
2017-12-22T02:26:53.412Z,15.55
2017-12-22T02:30:03.428Z,15.48
2017-12-22T02:33:13.262Z,15.55
2017-12-22T02:36:24.073Z,14.93
2017-12-22T02:39:35.547Z,13.48
2017-12-22T02:42:45.563Z,13.90
2017-12-22T02:45:55.551Z,12.95
2017-12-22T02:49:05.519Z,14.15
2017-12-22T02:52:15.397Z,13.70
2017-12-22T02:55:26.267Z,13.45
2017-12-22T02:58:36.553Z,16.40
2017-12-22T03:01:46.417Z,13.45
2017-12-22T03:04:57.046Z,13.73
2017-12-22T03:08:07.240Z,10.40
2017-12-22T03:11:17.720Z,13.48
2017-12-22T03:14:27.782Z,14.25
2017-12-22T03:17:37.700Z,12.05
2017-12-22T03:20:47.816Z,11.52
2017-12-22T03:23:57.803Z,15.43
2017-12-22T03:27:07.845Z,12.35
2017-12-22T03:30:17.927Z,10.50
2017-12-22T03:33:28.129Z,14.60
2017-12-22T03:36:38.743Z,11.20
2017-12-22T03:39:49.072Z,13.45
2017-12-22T03:42:58.926Z,13.13
2017-12-22T03:46:08.818Z,13.23
2017-12-22T03:49:18.705Z,12.65
2017-12-22T03:52:28.767Z,13.82
2017-12-22T03:55:38.562Z,14.80
2017-12-22T03:58:48.408Z,12.32
2017-12-22T04:01:58.519Z,13.82
2017-12-22T04:05:08.373Z,13.07
2017-12-22T04:08:18.137Z,17.35
2017-12-22T04:11:28.294Z,15.23
2017-12-22T04:14:38.175Z,12.88
2017-12-22T04:17:48.159Z,12.20
2017-12-22T04:20:59.192Z,14.05
2017-12-22T04:24:09.936Z,16.60
2017-12-22T04:27:20.029Z,12.65
2017-12-22T04:30:29.862Z,12.18
2017-12-22T04:33:40.576Z,11.00
2017-12-22T04:36:50.606Z,13.48
2017-12-22T04:40:00.891Z,16.87
2017-12-22T04:43:10.882Z,14.02
2017-12-22T04:46:20.794Z,12.13
2017-12-22T04:49:30.804Z,10.73
2017-12-22T04:52:40.521Z,13.07
2017-12-22T04:55:50.336Z,12.98
2017-12-22T04:59:00.240Z,14.25
2017-12-22T05:02:10.037Z,12.43
2017-12-22T05:05:20.987Z,12.95
2017-12-22T05:08:31.467Z,13.05
2017-12-22T05:11:41.929Z,12.60
2017-12-22T05:14:52.562Z,13.32
2017-12-22T05:18:02.784Z,15.40
2017-12-22T05:21:13.384Z,13.60
2017-12-22T05:24:23.325Z,11.50
2017-12-22T05:27:33.940Z,14.50
2017-12-22T05:30:44.175Z,12.10
2017-12-22T05:33:53.969Z,17.10
2017-12-22T05:37:04.297Z,14.07
2017-12-22T05:40:14.995Z,15.20
2017-12-22T05:43:25.022Z,14.60
2017-12-22T05:46:34.932Z,14.10
2017-12-22T05:49:45.793Z,12.50
2017-12-22T05:52:56.177Z,12.65
2017-12-22T05:56:06.237Z,11.57
2017-12-22T05:59:16.829Z,11.93
2017-12-22T06:02:28.138Z,13.90
2017-12-22T06:05:38.128Z,14.98
2017-12-22T06:08:48.283Z,15.20
2017-12-22T06:11:58.153Z,14.98
2017-12-22T06:15:08.265Z,12.93
2017-12-22T06:18:18.157Z,12.95
2017-12-22T06:21:28.219Z,14.65
2017-12-22T06:24:37.945Z,14.30
2017-12-22T06:27:48.113Z,14.93
2017-12-22T06:30:58.705Z,13.80
2017-12-22T06:34:09.904Z,19.48
2017-12-22T06:37:19.737Z,17.05
2017-12-22T06:40:29.814Z,16.10
2017-12-22T06:43:39.700Z,15.88
2017-12-22T06:46:49.955Z,16.10
2017-12-22T06:50:00.393Z,11.80
2017-12-22T06:53:10.364Z,14.40
2017-12-22T06:56:20.864Z,16.05
2017-12-22T06:59:30.848Z,12.40
2017-12-22T07:02:40.567Z,12.63
2017-12-22T07:05:50.542Z,14.23
2017-12-22T07:09:01.113Z,15.10
2017-12-22T07:15:12.748Z,17.10
2017-12-22T07:18:22.631Z,14.15
2017-12-22T07:21:33.607Z,17.40
2017-12-22T07:24:43.323Z,17.45
2017-12-22T07:27:53.398Z,14.55
2017-12-22T07:31:03.742Z,18.00
2017-12-22T07:34:14.827Z,14.73
2017-12-22T07:37:25.305Z,16.30
2017-12-22T07:40:35.939Z,17.23
2017-12-22T07:43:46.519Z,12.07
2017-12-22T07:46:56.960Z,16.00
2017-12-22T07:50:07.029Z,11.98
2017-12-22T07:53:17.867Z,18.25
2017-12-22T07:56:28.629Z,16.35
2017-12-22T07:59:38.884Z,16.20
2017-12-22T08:02:50.124Z,13.95
2017-12-22T08:06:00.973Z,15.60
2017-12-22T08:09:11.557Z,14.57
2017-12-22T08:12:21.813Z,14.18
2017-12-22T08:15:31.607Z,14.93
2017-12-22T08:18:41.657Z,17.08
2017-12-22T08:21:52.472Z,15.40
2017-12-22T08:25:02.820Z,14.10
2017-12-22T08:28:12.725Z,14.98
2017-12-22T08:31:23.250Z,16.98
2017-12-22T08:34:34.276Z,12.80
2017-12-22T08:37:44.707Z,15.48
2017-12-22T08:40:55.290Z,17.55
2017-12-22T08:44:05.536Z,18.37
2017-12-22T08:47:15.359Z,17.95
2017-12-22T08:50:25.699Z,14.05
2017-12-22T08:53:36.297Z,16.25
2017-12-22T08:56:46.568Z,18.25
2017-12-22T08:59:56.798Z,19.67
2017-12-22T09:03:07.703Z,15.27
2017-12-22T09:06:18.181Z,18.12
2017-12-22T09:09:28.258Z,18.55
2017-12-22T09:12:38.055Z,20.58
2017-12-22T09:15:47.967Z,19.15
2017-12-22T09:18:58.482Z,23.90
2017-12-22T09:22:08.929Z,17.92
2017-12-22T09:25:19.532Z,17.23
2017-12-22T09:28:30.506Z,17.83
2017-12-22T09:31:40.994Z,24.25
2017-12-22T09:34:51.138Z,22.73
2017-12-22T09:38:00.995Z,19.25
2017-12-22T09:41:11.291Z,19.00
2017-12-22T09:44:21.764Z,24.70
2017-12-22T09:47:31.705Z,23.60
2017-12-22T09:50:41.981Z,19.35
2017-12-22T09:53:52.760Z,17.12
2017-12-22T09:57:02.450Z,21.12
2017-12-22T10:00:12.688Z,15.85
2017-12-22T10:03:22.798Z,16.70
2017-12-22T10:06:32.895Z,21.83
2017-12-22T10:09:42.709Z,15.02
2017-12-22T10:12:53.776Z,18.87
2017-12-22T10:16:03.759Z,17.75
2017-12-22T10:19:14.077Z,16.35
2017-12-22T10:22:24.393Z,19.50
2017-12-22T10:25:34.777Z,19.15
2017-12-22T10:28:45.043Z,19.55
2017-12-22T10:31:56.432Z,24.52
2017-12-22T10:35:06.433Z,20.83
2017-12-22T10:38:16.381Z,12.98
2017-12-22T10:41:27.037Z,19.35
2017-12-22T10:44:39.556Z,18.92
2017-12-22T10:47:49.656Z,21.15
2017-12-22T10:51:00.420Z,12.10
2017-12-22T10:54:10.694Z,25.40
2017-12-22T10:57:21.253Z,24.08
2017-12-22T11:00:31.154Z,12.48
2017-12-22T11:03:41.389Z,18.60
2017-12-22T11:06:51.347Z,16.87
2017-12-22T11:10:01.505Z,23.55
2017-12-22T11:13:12.126Z,20.52
2017-12-22T11:16:22.983Z,20.50
2017-12-22T11:19:33.326Z,21.45
2017-12-22T11:22:43.702Z,23.40
2017-12-22T11:25:54.427Z,18.05
2017-12-22T11:29:04.789Z,22.00
2017-12-22T11:32:14.762Z,26.95
2017-12-22T11:35:25.027Z,25.20
2017-12-22T11:38:35.693Z,18.90
2017-12-22T11:41:45.764Z,18.30
2017-12-22T11:44:56.426Z,15.40
2017-12-22T11:48:07.474Z,22.15
2017-12-22T11:51:17.683Z,22.73
2017-12-22T11:54:28.422Z,15.38
2017-12-22T11:57:39.706Z,20.88
2017-12-22T12:00:49.952Z,16.62
2017-12-22T12:04:00.646Z,16.12
2017-12-22T12:07:11.632Z,17.70
2017-12-22T12:10:22.613Z,17.30
2017-12-22T12:13:32.698Z,14.45
2017-12-22T12:16:43.781Z,16.52
2017-12-22T12:19:54.179Z,20.73
2017-12-22T12:23:05.243Z,18.10
2017-12-22T12:26:15.715Z,14.55
2017-12-22T12:29:26.209Z,18.77
2017-12-22T12:32:36.097Z,14.75
2017-12-22T12:35:45.953Z,24.85
2017-12-22T12:38:55.828Z,17.02
2017-12-22T12:42:05.793Z,21.00
2017-12-22T12:45:15.639Z,22.42
2017-12-22T12:48:25.468Z,19.65
2017-12-22T12:51:35.200Z,21.50
2017-12-22T12:54:45.003Z,17.55
2017-12-22T12:57:55.275Z,21.27
2017-12-22T13:01:05.270Z,14.45
2017-12-22T13:04:15.078Z,16.92
2017-12-22T13:07:25.921Z,14.75
2017-12-22T13:10:36.232Z,16.45
2017-12-22T13:13:46.235Z,19.15
2017-12-22T13:16:56.202Z,17.00
2017-12-22T13:20:06.565Z,20.12
2017-12-22T13:23:17.600Z,22.75
2017-12-22T13:26:27.742Z,20.60
2017-12-22T13:29:38.465Z,17.20
2017-12-22T13:32:48.326Z,20.50
2017-12-22T13:35:58.044Z,19.75
2017-12-22T13:39:08.015Z,25.10
2017-12-22T13:42:17.902Z,14.77
2017-12-22T13:45:27.954Z,22.25
2017-12-22T13:48:38.716Z,24.35
2017-12-22T13:51:48.972Z,19.23
2017-12-22T13:54:59.631Z,14.95
2017-12-22T13:58:10.376Z,22.98
2017-12-22T14:01:20.576Z,14.77
2017-12-22T14:04:30.809Z,20.50
2017-12-22T14:07:40.881Z,14.90
2017-12-22T14:10:50.785Z,21.35
2017-12-22T14:14:00.883Z,25.75
2017-12-22T14:17:11.138Z,21.60
2017-12-22T14:20:21.704Z,19.92
2017-12-22T14:23:32.403Z,25.65
2017-12-22T14:26:43.214Z,23.27
2017-12-22T14:29:53.400Z,19.35
2017-12-22T14:33:04.837Z,23.75
2017-12-22T14:36:15.024Z,22.17
2017-12-22T14:39:27.139Z,22.25
2017-12-22T14:42:37.539Z,22.80
2017-12-22T14:45:48.617Z,23.17
2017-12-22T14:48:58.660Z,15.60
2017-12-22T14:52:09.360Z,21.80
2017-12-22T14:55:19.594Z,21.10
2017-12-22T14:58:30.458Z,21.60
2017-12-22T15:01:44.116Z,22.85
2017-12-22T15:04:54.694Z,23.92
2017-12-22T15:08:04.438Z,22.83
2017-12-22T15:11:14.481Z,27.60
2017-12-22T15:14:24.192Z,28.90
2017-12-22T15:17:35.689Z,21.58
2017-12-22T15:20:46.778Z,30.55
2017-12-22T15:23:56.680Z,36.55
2017-12-22T15:27:06.482Z,34.58
2017-12-22T15:30:17.264Z,33.60
2017-12-22T15:33:27.133Z,27.95
2017-12-22T15:36:37.224Z,31.98
2017-12-22T15:39:47.087Z,31.58
2017-12-22T15:42:56.962Z,27.98
2017-12-22T15:46:07.140Z,26.30
2017-12-22T15:49:17.148Z,27.27
2017-12-22T15:52:27.894Z,31.42
2017-12-22T15:55:38.045Z,30.23
2017-12-22T15:58:47.945Z,22.90
2017-12-22T16:01:58.048Z,23.15
2017-12-22T16:05:07.954Z,32.85
2017-12-22T16:08:17.777Z,32.78
2017-12-22T16:11:27.655Z,31.27
2017-12-22T16:14:38.379Z,42.13
2017-12-22T16:17:48.831Z,30.20
2017-12-22T16:20:58.990Z,29.00
2017-12-22T16:24:09.669Z,20.88
2017-12-22T16:27:19.537Z,25.23
2017-12-22T16:30:29.646Z,27.02
2017-12-22T16:33:39.491Z,29.45
2017-12-22T16:36:49.452Z,28.48
2017-12-22T16:39:59.441Z,27.67
2017-12-22T16:43:09.391Z,27.25
2017-12-22T16:46:19.278Z,28.85
2017-12-22T16:49:30.083Z,26.90
2017-12-22T16:52:39.976Z,22.37
2017-12-22T16:55:50.803Z,22.25
2017-12-22T16:59:00.960Z,24.90
2017-12-22T17:02:11.427Z,28.30
2017-12-22T17:05:21.212Z,25.42
2017-12-22T17:08:31.921Z,22.55
2017-12-22T17:11:42.119Z,25.00
2017-12-22T17:14:52.875Z,24.92
2017-12-22T17:18:03.267Z,25.95
2017-12-22T17:21:13.350Z,20.05
2017-12-22T17:24:23.409Z,30.37
2017-12-22T17:27:33.459Z,30.77
2017-12-22T17:30:43.470Z,24.05
2017-12-22T17:33:54.207Z,25.00
2017-12-22T17:37:04.017Z,21.73
2017-12-22T17:40:14.123Z,25.90
2017-12-22T17:43:24.168Z,25.65
2017-12-22T17:46:34.550Z,25.35
2017-12-22T17:49:45.242Z,28.60
2017-12-22T17:52:56.765Z,25.35
2017-12-22T17:56:10.072Z,18.98
2017-12-22T17:59:19.807Z,20.88
2017-12-22T18:02:29.759Z,15.63
2017-12-22T18:05:39.484Z,27.30
2017-12-22T18:08:50.404Z,16.75
2017-12-22T18:12:01.382Z,31.65
2017-12-22T18:15:11.763Z,24.12
2017-12-22T18:18:21.807Z,23.70
2017-12-22T18:21:31.672Z,30.85
2017-12-22T18:24:41.741Z,26.67
2017-12-22T18:27:51.805Z,29.15
2017-12-22T18:31:02.141Z,26.55
2017-12-22T18:34:12.650Z,20.15
2017-12-22T18:37:23.344Z,22.92
2017-12-22T18:40:33.303Z,27.90
2017-12-22T18:43:44.056Z,23.65
2017-12-22T18:46:54.813Z,28.10
2017-12-22T18:50:04.960Z,33.92
2017-12-22T18:53:15.802Z,28.40
2017-12-22T18:56:26.397Z,26.60
2017-12-22T18:59:36.517Z,29.50
2017-12-22T19:02:46.668Z,31.12
2017-12-22T19:05:57.540Z,31.55
2017-12-22T19:09:08.346Z,32.58
2017-12-22T19:12:18.233Z,25.52
2017-12-22T19:15:28.497Z,24.35
2017-12-22T19:18:38.374Z,25.35
2017-12-22T19:21:49.421Z,26.70
2017-12-22T19:25:00.464Z,31.85
2017-12-22T19:28:11.478Z,29.05
2017-12-22T19:31:21.773Z,25.27
2017-12-22T19:34:31.644Z,27.33
2017-12-22T19:37:41.736Z,30.00
2017-12-22T19:40:51.612Z,29.37
2017-12-22T19:44:01.445Z,28.77
2017-12-22T19:47:12.064Z,27.83
2017-12-22T19:50:23.054Z,27.27
2017-12-22T19:53:33.100Z,29.85
2017-12-22T19:56:43.224Z,30.65
2017-12-22T19:59:54.248Z,28.98
2017-12-22T20:06:35.458Z,26.70
2017-12-22T20:09:45.275Z,23.80
2017-12-22T20:12:56.191Z,28.05
2017-12-22T20:16:07.301Z,25.85
2017-12-22T20:19:17.492Z,24.98
2017-12-22T20:22:27.707Z,25.73
2017-12-22T20:25:37.939Z,21.33
2017-12-22T20:28:47.994Z,21.20
2017-12-22T20:31:58.050Z,27.58
2017-12-22T20:35:09.687Z,22.80
2017-12-22T20:38:19.748Z,26.30
2017-12-22T20:41:30.635Z,31.55
2017-12-22T20:44:40.570Z,25.95
2017-12-22T20:47:51.178Z,24.92
2017-12-22T20:51:01.177Z,26.95
2017-12-22T20:54:11.400Z,29.12
2017-12-22T20:57:22.474Z,25.30
2017-12-22T21:00:33.619Z,26.50
2017-12-22T21:03:43.788Z,23.23
2017-12-22T21:06:54.094Z,17.60
2017-12-22T21:10:04.000Z,21.60
2017-12-22T21:13:14.868Z,17.62
2017-12-22T21:16:25.164Z,11.85
2017-12-22T21:19:35.651Z,19.33
2017-12-22T21:22:46.403Z,22.73
2017-12-22T21:25:56.518Z,20.23
2017-12-22T21:29:07.185Z,15.45
2017-12-22T21:32:17.567Z,18.33
2017-12-22T21:35:27.513Z,20.92
2017-12-22T21:38:37.603Z,20.17
2017-12-22T21:41:47.636Z,19.67
2017-12-22T21:44:59.205Z,16.20
2017-12-22T21:48:09.985Z,17.08
2017-12-22T21:51:20.224Z,18.75
2017-12-22T21:54:30.281Z,17.98
2017-12-22T21:57:40.111Z,16.77
2017-12-22T22:00:51.549Z,17.75
2017-12-22T22:04:02.478Z,17.67
2017-12-22T22:07:12.493Z,15.05
2017-12-22T22:10:22.565Z,16.08
2017-12-22T22:13:32.443Z,16.35
2017-12-22T22:16:42.395Z,15.77
2017-12-22T22:19:54.128Z,14.75
2017-12-22T22:23:04.059Z,14.98
2017-12-22T22:26:15.415Z,15.10
2017-12-22T22:29:25.738Z,15.38
2017-12-22T22:32:35.834Z,14.20
2017-12-22T22:35:46.194Z,14.65
2017-12-22T22:38:56.289Z,14.23
2017-12-22T22:42:06.943Z,12.60
2017-12-22T22:45:17.648Z,16.85
2017-12-22T22:48:28.430Z,15.50
2017-12-22T22:51:38.852Z,16.62
2017-12-22T22:54:49.197Z,17.15
2017-12-22T22:58:00.607Z,13.95
2017-12-22T23:01:10.813Z,14.40
2017-12-22T23:04:22.059Z,16.00
2017-12-22T23:07:32.470Z,15.05
2017-12-22T23:10:42.379Z,13.55
2017-12-22T23:13:53.464Z,14.23
2017-12-22T23:17:03.482Z,15.52
2017-12-22T23:20:13.620Z,13.43
2017-12-22T23:23:23.722Z,13.07
2017-12-22T23:26:34.211Z,16.42
2017-12-22T23:29:44.740Z,14.57
2017-12-22T23:32:55.060Z,17.42
2017-12-22T23:36:04.796Z,15.48
2017-12-22T23:39:15.821Z,15.80
2017-12-22T23:42:26.626Z,12.60
2017-12-22T23:45:41.414Z,15.38
2017-12-22T23:48:51.449Z,16.85
2017-12-22T23:52:02.256Z,15.02
2017-12-22T23:55:12.440Z,14.68
2017-12-22T23:58:23.175Z,13.82
